Weather at Dupont-Lapeer Airport

Public forecast

Using degrees Fahrenheit for public forecast. Weather courtesy of forecast.io.

Current aviation weather report (METAR) for Dupont-Lapeer Airport

Retrieved UTC (0 seconds ago):

Closest aviation forecast (TAF) to Dupont-Lapeer Airport

Closest forecast is Bishop International Airport, 21.6 nm (39.9 km) WSW. Retrieved 2020/10/01 12:22 UTC (21 minutes ago):

TAF KFNT 011120Z 0112/0212 26005KT P6SM SCT040 BKN070 FM011500 26010KT P6SM -SHRA BKN040 TEMPO 0119/0122 3SM TSRA BR SCT028 OVC040CB FM012200 32008KT 6SM -SHRA SCT025 OVC035 FM020100 35012KT P6SM OVC022 FM020600 32008KT P6SM SCT030